Leila H — 8PAN3 — position and weather

sailwx.info

Track history (hours):
 
Tides and Currents Weather Stations Pressure Air Temp Water Temp Dewpoint Dewpoint Depression Visibility Wind Speed Wind Dir Waves Ship Positions

Leila H

Last reported at 2017-Dec-12 14:13 UTC. Time now 2017-Dec-16 09:19 UTC.
Position N 45°14' W 074°14'.

Length 140 m; draft 7.7 m.

Type: Cargo ship. MMSI: 314442000.

Date/timePositionNaut miles runAvg speedWind from/ knotsBaromVisibWave heightAir tempDewpointWater temp
2017-Dec-12 14:13N 45°14' W 074°14'210.9
2017-Dec-12 14:00N 45°14' W 074°10'5 9.5
2017-Dec-12 13:30N 45°13' W 074°04'5 9.5
2017-Dec-12 13:00N 45°16' W 073°58'3 6.2
2017-Dec-12 12:30N 45°18' W 073°56'1 1.4
2017-Dec-12 12:00N 45°19' W 073°55'0 0.5
2017-Dec-12 11:30N 45°19' W 073°55'1 1.1
2017-Dec-12 11:00N 45°20' W 073°55'2 3.4
2017-Dec-12 10:30N 45°21' W 073°53'4 7.4
2017-Dec-12 10:00N 45°23' W 073°49'5 9.5
2017-Dec-12 09:30N 45°25' W 073°42'3 6.3
2017-Dec-12 09:00N 45°24' W 073°38'3 5.6
2017-Dec-12 08:30N 45°24' W 073°34'1 1.6
2017-Dec-12 07:59N 45°24' W 073°33'3 5.4
2017-Dec-12 07:22N 45°27' W 073°30'  
2017-Dec-03 00:46N 18°07' W 063°18'311.3
2017-Dec-03 00:30N 18°04' W 063°17'  
Track history (hours):
 
Tides and Currents Weather Stations Pressure Air Temp Water Temp Dewpoint Dewpoint Depression Visibility Wind Speed Wind Dir Waves Ship Positions

Leila H

Last reported at 2017-Dec-12 14:13 UTC. Time now 2017-Dec-16 09:19 UTC.
Position N 45°14' W 074°14'.

Length 140 m; draft 7.7 m.

Type: Cargo ship. MMSI: 314442000.

Date/timePositionNaut miles runAvg speedWind from/ knotsBaromVisibWave heightAir tempDewpointWater temp
2017-Dec-12 14:13N 45°14' W 074°14'210.9
2017-Dec-12 14:00N 45°14' W 074°10'5 9.5
2017-Dec-12 13:30N 45°13' W 074°04'5 9.5
2017-Dec-12 13:00N 45°16' W 073°58'3 6.2
2017-Dec-12 12:30N 45°18' W 073°56'1 1.4
2017-Dec-12 12:00N 45°19' W 073°55'0 0.5
2017-Dec-12 11:30N 45°19' W 073°55'1 1.1
2017-Dec-12 11:00N 45°20' W 073°55'2 3.4
2017-Dec-12 10:30N 45°21' W 073°53'4 7.4
2017-Dec-12 10:00N 45°23' W 073°49'5 9.5
2017-Dec-12 09:30N 45°25' W 073°42'3 6.3
2017-Dec-12 09:00N 45°24' W 073°38'3 5.6
2017-Dec-12 08:30N 45°24' W 073°34'1 1.6
2017-Dec-12 07:59N 45°24' W 073°33'3 5.4
2017-Dec-12 07:22N 45°27' W 073°30'  
2017-Dec-03 00:46N 18°07' W 063°18'311.3
2017-Dec-03 00:30N 18°04' W 063°17'  

Dump ship's entire track history